Time;durP1;ratioP1;P1;durP2;ratioP2;P2;SDS_P1;SDS_P2;PMS_P1;PMS_P2;Temp;Humidity;BMP_temperature;BMP_pressure;BME280_temperature;BME280_humidity;BME280_pressure;Samples;Min_cycle;Max_cycle;Signal;HPM_P1;HPM_P2
2022/06/24 00:07:16;;;;;;;7.75;2.45;;;16.20;99.90;;;;;;20979678;28;20033;-48
2022/06/24 00:17:19;;;;;;;6.45;2.25;;;16.40;99.90;;;;;;20977695;28;20056;-58
2022/06/24 00:27:24;;;;;;;9.02;2.15;;;16.60;99.90;;;;;;20976991;28;20040;-58
2022/06/24 00:37:29;;;;;;;8.63;2.63;;;16.60;99.90;;;;;;20976229;28;20403;-58
2022/06/24 00:47:35;;;;;;;14.10;2.40;;;16.50;99.90;;;;;;20974379;28;20036;-51
2022/06/24 00:57:40;;;;;;;11.82;2.30;;;16.40;99.90;;;;;;21017826;28;20032;-58
2022/06/24 01:07:42;;;;;;;12.05;2.08;;;16.60;99.90;;;;;;21057532;28;20040;-58
2022/06/24 01:17:44;;;;;;;9.73;2.55;;;16.60;99.90;;;;;;21056580;28;20156;-58
2022/06/24 01:27:48;;;;;;;9.98;2.05;;;16.60;99.90;;;;;;21055815;28;20402;-47
2022/06/24 01:37:50;;;;;;;11.57;1.60;;;16.50;99.90;;;;;;21055142;28;20066;-57
2022/06/24 01:47:53;;;;;;;11.25;2.00;;;16.30;99.90;;;;;;21054802;28;20081;-58
2022/06/24 01:57:55;;;;;;;7.82;1.77;;;16.50;99.90;;;;;;21007355;28;20086;-47
2022/06/24 02:07:59;;;;;;;7.93;1.83;;;16.70;99.90;;;;;;20968543;28;20037;-58
2022/06/24 02:18:01;;;;;;;13.27;2.35;;;16.70;99.90;;;;;;20968154;28;20045;-58
2022/06/24 02:28:05;;;;;;;10.60;2.20;;;16.80;99.90;;;;;;20967911;28;20568;-58
2022/06/24 02:38:08;;;;;;;6.80;1.33;;;16.90;99.90;;;;;;20967143;28;20036;-57
2022/06/24 02:48:11;;;;;;;12.23;2.25;;;16.80;99.90;;;;;;20967403;28;20036;-57
2022/06/24 02:58:14;;;;;;;9.90;1.92;;;16.50;99.90;;;;;;20997678;28;20036;-58
2022/06/24 03:08:18;;;;;;;17.73;1.92;;;16.10;99.90;;;;;;21061946;28;20036;-57
2022/06/24 03:18:21;;;;;;;8.13;2.08;;;15.80;99.90;;;;;;21066168;28;20498;-57
2022/06/24 03:28:24;;;;;;;6.10;1.65;;;15.40;99.90;;;;;;21065560;28;20109;-57
2022/06/24 03:38:26;;;;;;;6.45;2.25;;;14.70;99.90;;;;;;21048120;28;20032;-47
2022/06/24 03:48:30;;;;;;;6.93;2.20;;;14.40;99.90;;;;;;21063747;28;20026;-56
2022/06/24 03:58:32;;;;;;;8.13;1.58;;;14.40;99.90;;;;;;21012112;28;20552;-56
2022/06/24 04:08:35;;;;;;;10.27;2.47;;;14.30;99.90;;;;;;20978410;28;20036;-47
2022/06/24 04:18:38;;;;;;;13.65;1.60;;;14.50;99.90;;;;;;20977756;28;20101;-48
2022/06/24 04:28:41;;;;;;;6.10;2.00;;;15.10;99.90;;;;;;20977086;28;20044;-56
2022/06/24 04:38:45;;;;;;;9.73;2.08;;;14.70;99.90;;;;;;20976843;28;20114;-47
2022/06/24 04:48:48;;;;;;;9.75;2.13;;;14.30;99.90;;;;;;20959244;28;20040;-49
2022/06/24 04:58:50;;;;;;;9.02;2.10;;;14.10;99.90;;;;;;21028304;28;20093;-47
2022/06/24 05:08:53;;;;;;;7.20;2.42;;;13.90;99.90;;;;;;21057679;28;20058;-50
2022/06/24 05:18:55;;;;;;;12.07;2.50;;;13.90;99.90;;;;;;21056609;28;20113;-55
2022/06/24 05:28:59;;;;;;;7.43;2.88;;;14.00;99.90;;;;;;21056224;28;20117;-55
2022/06/24 05:39:05;;;;;;;17.33;3.38;;;14.20;99.90;;;;;;21055168;28;20402;-53
2022/06/24 05:49:08;;;;;;;10.23;3.63;;;14.40;99.90;;;;;;21054235;28;20109;-55
2022/06/24 05:59:11;;;;;;;9.48;3.28;;;14.60;99.90;;;;;;20996775;28;20352;-57
2022/06/24 06:09:14;;;;;;;11.48;3.88;;;15.00;99.90;;;;;;20969199;28;20116;-58
2022/06/24 06:19:16;;;;;;;9.07;3.10;;;16.20;99.90;;;;;;20968387;28;20048;-48
2022/06/24 06:29:20;;;;;;;14.15;3.33;;;18.00;99.90;;;;;;20968035;28;20036;-51
2022/06/24 06:39:22;;;;;;;10.82;2.70;;;19.50;99.90;;;;;;20966608;28;20380;-58
2022/06/24 06:49:25;;;;;;;10.80;3.35;;;19.60;99.90;;;;;;20967268;28;20094;-50
2022/06/24 06:59:27;;;;;;;11.52;3.53;;;19.70;99.90;;;;;;20967368;28;20078;-59
2022/06/24 07:09:30;;;;;;;8.80;2.47;;;22.30;99.90;;;;;;20983548;28;20040;-58
2022/06/24 07:19:32;;;;;;;14.07;3.42;;;24.10;99.90;;;;;;20982215;28;20094;-51
2022/06/24 07:29:38;;;;;;;11.90;3.30;;;22.00;99.90;;;;;;20981926;28;20041;-60
2022/06/24 07:39:40;;;;;;;9.57;3.53;;;21.10;99.90;;;;;;20981608;28;20037;-59
2022/06/24 07:49:43;;;;;;;14.98;4.85;;;21.10;99.90;;;;;;20985961;28;20059;-50
2022/06/24 07:59:46;;;;;;;16.13;4.82;;;21.00;99.90;;;;;;21057128;28;20508;-59
2022/06/24 08:09:49;;;;;;;16.83;4.32;;;20.50;99.90;;;;;;21062227;28;20101;-59
2022/06/24 08:19:51;;;;;;;15.25;4.68;;;19.70;99.90;;;;;;21061192;28;20048;-59
2022/06/24 08:29:55;;;;;;;13.20;3.65;;;21.20;99.90;;;;;;21060457;28;20032;-61
2022/06/24 08:39:59;;;;;;;15.50;3.50;;;21.80;99.90;;;;;;21059470;28;20070;-55
2022/06/24 08:50:03;;;;;;;12.90;2.65;;;24.90;99.90;;;;;;21059070;28;20040;-61
2022/06/24 09:00:06;;;;;;;12.27;3.00;;;25.70;99.40;;;;;;20976752;28;20040;-60
2022/06/24 09:10:14;;;;;;;11.13;2.85;;;25.20;98.10;;;;;;20974032;28;20036;-61
2022/06/24 09:20:19;;;;;;;8.70;2.40;;;26.20;98.10;;;;;;20972993;28;20052;-61
2022/06/24 09:30:34;;;;;;;12.25;3.28;;;27.50;95.70;;;;;;20973744;28;20418;-62
2022/06/24 09:40:41;;;;;;;8.32;2.42;;;28.00;94.20;;;;;;20971538;28;20082;-62
2022/06/24 09:50:44;;;;;;;13.30;3.13;;;28.40;91.60;;;;;;20970695;28;20036;-62
2022/06/24 10:00:49;;;;;;;12.30;2.70;;;28.90;92.50;;;;;;21039470;28;20059;-62
2022/06/24 10:10:54;;;;;;;10.00;2.60;;;28.10;90.70;;;;;;21050944;28;20040;-62
2022/06/24 10:20:59;;;;;;;12.03;2.40;;;28.60;90.90;;;;;;20985125;28;20133;-62
2022/06/24 10:31:02;;;;;;;10.90;2.30;;;28.60;89.90;;;;;;20985080;28;20098;-63
2022/06/24 10:41:08;;;;;;;9.75;2.08;;;28.50;88.80;;;;;;20984371;28;20090;-61
2022/06/24 10:51:21;;;;;;;6.60;1.80;;;27.50;88.20;;;;;;20984992;28;20395;-54
2022/06/24 11:01:44;;;;;;;8.00;1.65;;;27.70;86.60;;;;;;20983276;28;20051;-60
2022/06/24 11:11:47;;;;;;;7.05;1.80;;;26.40;88.60;;;;;;20983105;28;20370;-60
2022/06/24 11:21:51;;;;;;;9.75;2.83;;;25.10;90.70;;;;;;20982728;28;20072;-59
2022/06/24 11:31:54;;;;;;;13.73;2.85;;;24.80;90.60;;;;;;20998260;28;20090;-61
2022/06/24 11:41:57;;;;;;;5.97;1.65;;;25.20;92.50;;;;;;20997508;28;20033;-61
2022/06/24 11:52:01;;;;;;;8.85;2.47;;;27.40;89.10;;;;;;20979971;28;20055;-60
2022/06/24 12:02:21;;;;;;;7.70;1.58;;;26.80;87.60;;;;;;20915633;28;20040;-61
2022/06/24 12:12:24;;;;;;;7.95;2.33;;;27.00;87.50;;;;;;20912794;28;20067;-61
2022/06/24 12:23:13;;;;;;;8.20;1.73;;;27.60;85.30;;;;;;20830591;28;20041;-61
2022/06/24 12:33:48;;;;;;;5.50;2.00;;;27.50;88.10;;;;;;20821214;28;20373;-60
2022/06/24 12:44:09;;;;;;;5.35;2.10;;;27.10;90.30;;;;;;20828806;28;20038;-61
2022/06/24 12:54:14;;;;;;;5.97;1.10;;;27.30;87.20;;;;;;20841016;28;20041;-61
2022/06/24 13:04:17;;;;;;;6.20;1.60;;;26.30;88.90;;;;;;20908303;28;20071;-61
2022/06/24 13:14:20;;;;;;;9.93;1.95;;;27.20;89.90;;;;;;20939071;28;20093;-60
2022/06/24 13:24:23;;;;;;;5.20;1.65;;;26.70;88.40;;;;;;21057200;28;20044;-60
2022/06/24 13:34:27;;;;;;;8.05;1.92;;;26.40;90.00;;;;;;21055790;28;20039;-59
2022/06/24 13:44:33;;;;;;;3.67;1.30;;;27.20;90.40;;;;;;21022497;28;20035;-59
2022/06/24 13:54:36;;;;;;;5.82;1.17;;;27.10;85.80;;;;;;21036019;28;20098;-59
2022/06/24 14:04:39;;;;;;;6.43;1.60;;;24.60;89.30;;;;;;20970029;28;20508;-59
2022/06/24 14:14:42;;;;;;;4.45;0.93;;;23.50;92.10;;;;;;20969399;28;20571;-59
2022/06/24 14:24:45;;;;;;;4.38;1.25;;;23.70;91.20;;;;;;20968443;28;20040;-59
2022/06/24 14:34:49;;;;;;;5.85;0.73;;;23.60;91.30;;;;;;20968219;28;20033;-59
2022/06/24 14:44:51;;;;;;;5.93;1.00;;;23.00;91.30;;;;;;20968837;28;20040;-58
2022/06/24 14:54:54;;;;;;;5.22;1.00;;;22.30;91.20;;;;;;20987682;28;20085;-50
2022/06/24 15:04:56;;;;;;;3.65;1.17;;;21.30;92.30;;;;;;21049441;28;20416;-58
2022/06/24 15:14:59;;;;;;;6.28;1.02;;;20.80;93.60;;;;;;21050256;28;20105;-59
2022/06/24 15:25:03;;;;;;;15.23;1.15;;;20.50;93.80;;;;;;21049464;28;20052;-58
2022/06/24 15:35:07;;;;;;;4.63;1.33;;;20.00;94.30;;;;;;21049135;28;20044;-58
2022/06/24 15:45:13;;;;;;;4.95;1.27;;;19.60;95.80;;;;;;21066989;28;20036;-59
2022/06/24 15:55:16;;;;;;;3.75;1.65;;;18.70;99.60;;;;;;21025007;28;20094;-55
2022/06/24 16:05:19;;;;;;;5.03;2.08;;;17.20;99.90;;;;;;20964470;28;20544;-54
2022/06/24 16:15:23;;;;;;;5.35;2.83;;;15.70;99.90;;;;;;20974216;28;20044;-53
2022/06/24 16:36:03;;;;;;;0.90;0.30;;;15.00;99.90;;;;;;20977163;28;20044;-48
2022/06/24 16:46:25;;;;;;;0.45;0.20;;;14.80;99.90;;;;;;20977632;28;20036;-54
2022/06/24 16:56:27;;;;;;;0.47;0.30;;;14.60;99.90;;;;;;21009112;28;20070;-53
2022/06/24 17:06:30;;;;;;;1.38;0.40;;;14.70;99.90;;;;;;21042041;28;20032;-54
2022/06/24 17:16:32;;;;;;;0.98;0.32;;;15.70;99.90;;;;;;21057850;28;20040;-52
2022/06/24 17:26:35;;;;;;;0.63;0.30;;;15.90;99.90;;;;;;21055740;28;20691;-47
2022/06/24 17:36:39;;;;;;;1.45;0.43;;;15.50;99.90;;;;;;21055881;28;20372;-52
2022/06/24 17:46:41;;;;;;;3.47;0.88;;;15.30;99.90;;;;;;21055465;28;20094;-55
2022/06/24 17:56:44;;;;;;;3.53;0.80;;;15.30;99.90;;;;;;21018782;28;20040;-54
2022/06/24 18:06:46;;;;;;;2.25;0.77;;;15.40;99.90;;;;;;20970107;28;20499;-53
2022/06/24 18:16:49;;;;;;;3.72;1.30;;;15.00;99.90;;;;;;20812376;28;20095;-54
2022/06/24 18:26:51;;;;;;;17.13;1.65;;;14.60;99.90;;;;;;20795708;28;20061;-54
2022/06/24 18:36:55;;;;;;;5.32;1.38;;;14.90;99.90;;;;;;20795019;28;20119;-49
2022/06/24 18:46:57;;;;;;;5.43;1.70;;;14.80;99.90;;;;;;20794903;28;20530;-51
2022/06/24 18:57:00;;;;;;;4.10;1.20;;;14.40;99.90;;;;;;20878915;28;20071;-52
2022/06/24 19:07:03;;;;;;;5.57;1.67;;;14.40;99.90;;;;;;20983572;28;20044;-55
2022/06/24 19:17:06;;;;;;;5.68;1.60;;;14.50;99.90;;;;;;21005417;28;20047;-55
2022/06/24 19:27:10;;;;;;;8.20;1.45;;;14.40;99.90;;;;;;21049809;28;20032;-48
2022/06/24 19:37:14;;;;;;;8.23;2.00;;;14.50;99.90;;;;;;21049182;28;20109;-50
2022/06/24 19:47:16;;;;;;;3.25;1.25;;;14.50;99.90;;;;;;21055912;28;20160;-53
2022/06/24 19:57:19;;;;;;;6.22;1.75;;;14.80;99.90;;;;;;21023461;28;20040;-52
2022/06/24 20:07:22;;;;;;;5.47;1.30;;;14.90;99.90;;;;;;20979505;28;20040;-54
2022/06/24 20:17:25;;;;;;;4.28;1.58;;;15.00;99.90;;;;;;20978470;28;20397;-52
2022/06/24 20:27:28;;;;;;;6.18;1.08;;;15.10;99.90;;;;;;20961885;28;20445;-55
2022/06/24 20:37:31;;;;;;;3.30;1.10;;;15.00;99.90;;;;;;20977418;28;20106;-48
2022/06/24 20:47:34;;;;;;;6.40;2.08;;;15.00;99.90;;;;;;20994557;28;20036;-54
2022/06/24 20:57:37;;;;;;;7.57;1.85;;;14.90;99.90;;;;;;21017827;28;20032;-56
2022/06/24 21:07:39;;;;;;;4.45;1.30;;;14.60;99.90;;;;;;21058827;28;20032;-49
2022/06/24 21:17:42;;;;;;;3.53;1.05;;;15.30;99.90;;;;;;21057729;28;20559;-53
2022/06/24 21:27:44;;;;;;;3.30;1.27;;;15.40;99.90;;;;;;21056919;28;20036;-53
2022/06/24 21:37:48;;;;;;;6.00;1.60;;;15.60;99.90;;;;;;21055926;28;20040;-53
2022/06/24 21:47:51;;;;;;;5.57;1.67;;;15.70;99.90;;;;;;21055448;28;20059;-48
2022/06/24 21:57:54;;;;;;;1.65;0.95;;;15.60;99.90;;;;;;21009163;28;20041;-53
2022/06/24 22:07:56;;;;;;;2.10;1.10;;;15.30;99.90;;;;;;20969666;28;20040;-53
2022/06/24 22:17:59;;;;;;;2.88;1.52;;;15.00;99.90;;;;;;20969250;28;20068;-52
2022/06/24 22:28:02;;;;;;;10.38;1.55;;;14.50;99.90;;;;;;20968482;28;20403;-56
2022/06/24 22:38:05;;;;;;;8.10;2.05;;;14.00;99.90;;;;;;20968132;28;20032;-53
2022/06/24 22:48:08;;;;;;;5.13;2.10;;;13.30;99.90;;;;;;20968057;28;20028;-52
2022/06/24 22:58:10;;;;;;;4.03;2.03;;;12.80;99.90;;;;;;21015195;28;20028;-51
2022/06/24 23:08:13;;;;;;;4.05;1.70;;;12.40;99.90;;;;;;21051626;28;20040;-48
2022/06/24 23:18:15;;;;;;;3.58;1.85;;;12.20;99.90;;;;;;21049977;28;20044;-48
2022/06/24 23:28:18;;;;;;;5.15;1.80;;;12.20;99.90;;;;;;21066558;28;20036;-48
2022/06/24 23:38:21;;;;;;;3.03;1.45;;;12.00;99.90;;;;;;21065879;28;20027;-54
2022/06/24 23:58:45;;;;;;;7.20;1.90;;;11.70;99.90;;;;;;21011487;28;20381;-54
